sensor_id;sensor_type;location;lat;lon;timestamp;P1;durP1;ratioP1;P2;durP2;ratioP2
18726;SDS011;9492;51.888;5.186;2022-12-10T00:01:41;48.33;;;28.43;;
18726;SDS011;9492;51.888;5.186;2022-12-10T00:04:07;50.73;;;27.60;;
18726;SDS011;9492;51.888;5.186;2022-12-10T00:06:34;46.33;;;27.23;;
18726;SDS011;9492;51.888;5.186;2022-12-10T00:09:01;48.73;;;28.13;;
18726;SDS011;9492;51.888;5.186;2022-12-10T00:11:28;48.83;;;28.50;;
18726;SDS011;9492;51.888;5.186;2022-12-10T00:13:54;51.43;;;28.60;;
18726;SDS011;9492;51.888;5.186;2022-12-10T00:16:20;56.67;;;29.27;;
18726;SDS011;9492;51.888;5.186;2022-12-10T00:18:47;51.97;;;30.23;;
18726;SDS011;9492;51.888;5.186;2022-12-10T00:21:14;52.83;;;28.70;;
18726;SDS011;9492;51.888;5.186;2022-12-10T00:23:41;53.87;;;28.17;;
18726;SDS011;9492;51.888;5.186;2022-12-10T00:26:11;47.90;;;28.50;;
18726;SDS011;9492;51.888;5.186;2022-12-10T00:28:38;54.23;;;29.40;;
18726;SDS011;9492;51.888;5.186;2022-12-10T00:31:05;49.07;;;26.80;;
18726;SDS011;9492;51.888;5.186;2022-12-10T00:33:31;54.33;;;29.60;;
18726;SDS011;9492;51.888;5.186;2022-12-10T00:36:06;53.67;;;28.17;;
18726;SDS011;9492;51.888;5.186;2022-12-10T00:38:33;55.87;;;30.40;;
18726;SDS011;9492;51.888;5.186;2022-12-10T00:40:59;55.47;;;31.07;;
18726;SDS011;9492;51.888;5.186;2022-12-10T00:43:25;65.63;;;32.57;;
18726;SDS011;9492;51.888;5.186;2022-12-10T00:45:52;60.57;;;30.23;;
18726;SDS011;9492;51.888;5.186;2022-12-10T00:48:18;51.97;;;26.80;;
18726;SDS011;9492;51.888;5.186;2022-12-10T00:50:44;53.03;;;28.97;;
18726;SDS011;9492;51.888;5.186;2022-12-10T00:53:19;55.57;;;29.83;;
18726;SDS011;9492;51.888;5.186;2022-12-10T00:55:45;50.20;;;27.23;;
18726;SDS011;9492;51.888;5.186;2022-12-10T00:58:11;50.50;;;26.63;;
18726;SDS011;9492;51.888;5.186;2022-12-10T01:00:37;49.40;;;27.03;;
18726;SDS011;9492;51.888;5.186;2022-12-10T01:03:03;48.33;;;27.07;;
18726;SDS011;9492;51.888;5.186;2022-12-10T01:05:29;53.40;;;27.70;;
18726;SDS011;9492;51.888;5.186;2022-12-10T01:07:55;50.87;;;27.53;;
18726;SDS011;9492;51.888;5.186;2022-12-10T01:10:22;57.97;;;28.63;;
18726;SDS011;9492;51.888;5.186;2022-12-10T01:12:48;60.33;;;29.87;;
18726;SDS011;9492;51.888;5.186;2022-12-10T01:15:14;54.00;;;29.30;;
18726;SDS011;9492;51.888;5.186;2022-12-10T01:17:40;55.73;;;29.00;;
18726;SDS011;9492;51.888;5.186;2022-12-10T01:20:06;59.03;;;30.07;;
18726;SDS011;9492;51.888;5.186;2022-12-10T01:22:32;59.37;;;30.30;;
18726;SDS011;9492;51.888;5.186;2022-12-10T01:24:58;55.37;;;29.77;;
18726;SDS011;9492;51.888;5.186;2022-12-10T01:27:24;61.83;;;30.63;;
18726;SDS011;9492;51.888;5.186;2022-12-10T01:29:50;54.70;;;28.77;;
18726;SDS011;9492;51.888;5.186;2022-12-10T01:32:16;52.07;;;27.27;;
18726;SDS011;9492;51.888;5.186;2022-12-10T01:34:42;55.23;;;27.97;;
18726;SDS011;9492;51.888;5.186;2022-12-10T01:37:08;52.07;;;27.53;;
18726;SDS011;9492;51.888;5.186;2022-12-10T01:39:34;57.70;;;31.13;;
18726;SDS011;9492;51.888;5.186;2022-12-10T01:42:00;51.73;;;29.20;;
18726;SDS011;9492;51.888;5.186;2022-12-10T01:46:53;53.50;;;28.33;;
18726;SDS011;9492;51.888;5.186;2022-12-10T01:49:21;56.93;;;30.37;;
18726;SDS011;9492;51.888;5.186;2022-12-10T01:51:49;51.30;;;28.10;;
18726;SDS011;9492;51.888;5.186;2022-12-10T01:54:19;63.93;;;30.37;;
18726;SDS011;9492;51.888;5.186;2022-12-10T01:56:51;67.50;;;32.23;;
18726;SDS011;9492;51.888;5.186;2022-12-10T01:59:20;70.77;;;34.33;;
18726;SDS011;9492;51.888;5.186;2022-12-10T02:01:52;64.93;;;33.77;;
18726;SDS011;9492;51.888;5.186;2022-12-10T02:04:25;70.33;;;33.27;;
18726;SDS011;9492;51.888;5.186;2022-12-10T02:09:27;62.00;;;33.17;;
18726;SDS011;9492;51.888;5.186;2022-12-10T02:12:11;76.10;;;34.07;;
18726;SDS011;9492;51.888;5.186;2022-12-10T02:14:43;76.27;;;33.47;;
18726;SDS011;9492;51.888;5.186;2022-12-10T02:17:27;76.43;;;32.67;;
18726;SDS011;9492;51.888;5.186;2022-12-10T02:22:20;66.30;;;32.53;;
18726;SDS011;9492;51.888;5.186;2022-12-10T02:24:48;87.93;;;35.60;;
18726;SDS011;9492;51.888;5.186;2022-12-10T02:27:17;82.00;;;35.83;;
18726;SDS011;9492;51.888;5.186;2022-12-10T02:29:44;76.73;;;32.73;;
18726;SDS011;9492;51.888;5.186;2022-12-10T02:32:13;84.10;;;36.13;;
18726;SDS011;9492;51.888;5.186;2022-12-10T02:34:41;73.53;;;35.67;;
18726;SDS011;9492;51.888;5.186;2022-12-10T02:37:19;74.23;;;35.37;;
18726;SDS011;9492;51.888;5.186;2022-12-10T02:39:48;86.40;;;37.07;;
18726;SDS011;9492;51.888;5.186;2022-12-10T02:42:15;76.57;;;37.47;;
18726;SDS011;9492;51.888;5.186;2022-12-10T02:44:42;78.33;;;35.37;;
18726;SDS011;9492;51.888;5.186;2022-12-10T02:47:09;79.80;;;36.20;;
18726;SDS011;9492;51.888;5.186;2022-12-10T02:49:36;68.23;;;33.43;;
18726;SDS011;9492;51.888;5.186;2022-12-10T02:52:07;75.03;;;34.83;;
18726;SDS011;9492;51.888;5.186;2022-12-10T02:54:44;73.67;;;33.17;;
18726;SDS011;9492;51.888;5.186;2022-12-10T02:59:59;82.40;;;37.63;;
18726;SDS011;9492;51.888;5.186;2022-12-10T03:07:51;72.70;;;34.70;;
18726;SDS011;9492;51.888;5.186;2022-12-10T03:10:26;78.07;;;34.80;;
18726;SDS011;9492;51.888;5.186;2022-12-10T03:13:00;75.47;;;34.97;;
18726;SDS011;9492;51.888;5.186;2022-12-10T03:15:27;75.63;;;35.47;;
18726;SDS011;9492;51.888;5.186;2022-12-10T03:17:54;68.20;;;34.00;;
18726;SDS011;9492;51.888;5.186;2022-12-10T03:20:21;72.43;;;36.53;;
18726;SDS011;9492;51.888;5.186;2022-12-10T03:22:49;73.03;;;34.10;;
18726;SDS011;9492;51.888;5.186;2022-12-10T03:25:18;72.43;;;34.23;;
18726;SDS011;9492;51.888;5.186;2022-12-10T03:27:45;70.87;;;33.97;;
18726;SDS011;9492;51.888;5.186;2022-12-10T03:30:15;78.67;;;36.07;;
18726;SDS011;9492;51.888;5.186;2022-12-10T03:32:41;70.60;;;33.37;;
18726;SDS011;9492;51.888;5.186;2022-12-10T03:35:08;94.20;;;34.37;;
18726;SDS011;9492;51.888;5.186;2022-12-10T03:37:34;61.30;;;32.20;;
18726;SDS011;9492;51.888;5.186;2022-12-10T03:40:02;71.77;;;32.77;;
18726;SDS011;9492;51.888;5.186;2022-12-10T03:42:28;62.87;;;31.27;;
18726;SDS011;9492;51.888;5.186;2022-12-10T03:44:54;62.37;;;31.67;;
18726;SDS011;9492;51.888;5.186;2022-12-10T03:47:20;72.43;;;33.13;;
18726;SDS011;9492;51.888;5.186;2022-12-10T03:49:46;89.20;;;36.00;;
18726;SDS011;9492;51.888;5.186;2022-12-10T03:52:13;74.53;;;32.00;;
18726;SDS011;9492;51.888;5.186;2022-12-10T03:54:39;80.60;;;31.17;;
18726;SDS011;9492;51.888;5.186;2022-12-10T03:57:05;76.20;;;32.00;;
18726;SDS011;9492;51.888;5.186;2022-12-10T03:59:31;83.70;;;34.73;;
18726;SDS011;9492;51.888;5.186;2022-12-10T04:01:57;76.93;;;32.67;;
18726;SDS011;9492;51.888;5.186;2022-12-10T04:04:23;106.40;;;30.73;;
18726;SDS011;9492;51.888;5.186;2022-12-10T04:06:49;136.70;;;32.40;;
18726;SDS011;9492;51.888;5.186;2022-12-10T04:09:15;112.57;;;33.73;;
18726;SDS011;9492;51.888;5.186;2022-12-10T04:11:42;60.33;;;30.50;;
18726;SDS011;9492;51.888;5.186;2022-12-10T04:14:08;87.63;;;34.77;;
18726;SDS011;9492;51.888;5.186;2022-12-10T04:16:53;124.77;;;34.40;;
18726;SDS011;9492;51.888;5.186;2022-12-10T04:19:19;68.53;;;32.03;;
18726;SDS011;9492;51.888;5.186;2022-12-10T04:21:45;79.93;;;32.83;;
18726;SDS011;9492;51.888;5.186;2022-12-10T04:24:31;80.23;;;32.40;;
18726;SDS011;9492;51.888;5.186;2022-12-10T04:27:18;86.93;;;32.73;;
18726;SDS011;9492;51.888;5.186;2022-12-10T04:29:44;75.03;;;33.07;;
18726;SDS011;9492;51.888;5.186;2022-12-10T04:32:10;66.87;;;31.80;;
18726;SDS011;9492;51.888;5.186;2022-12-10T04:34:36;78.67;;;31.27;;
18726;SDS011;9492;51.888;5.186;2022-12-10T04:37:02;52.70;;;29.23;;
18726;SDS011;9492;51.888;5.186;2022-12-10T04:39:29;55.27;;;29.37;;
18726;SDS011;9492;51.888;5.186;2022-12-10T04:41:55;51.83;;;27.70;;
18726;SDS011;9492;51.888;5.186;2022-12-10T04:44:21;88.60;;;29.83;;
18726;SDS011;9492;51.888;5.186;2022-12-10T04:46:48;72.03;;;30.93;;
18726;SDS011;9492;51.888;5.186;2022-12-10T04:49:14;72.13;;;30.53;;
18726;SDS011;9492;51.888;5.186;2022-12-10T04:51:40;70.93;;;31.93;;
18726;SDS011;9492;51.888;5.186;2022-12-10T04:54:07;60.27;;;28.23;;
18726;SDS011;9492;51.888;5.186;2022-12-10T04:56:33;66.87;;;29.37;;
18726;SDS011;9492;51.888;5.186;2022-12-10T04:58:59;55.10;;;27.63;;
18726;SDS011;9492;51.888;5.186;2022-12-10T05:01:26;53.87;;;26.80;;
18726;SDS011;9492;51.888;5.186;2022-12-10T05:03:53;75.80;;;28.77;;
18726;SDS011;9492;51.888;5.186;2022-12-10T05:06:19;54.07;;;27.33;;
18726;SDS011;9492;51.888;5.186;2022-12-10T05:08:45;55.53;;;26.73;;
18726;SDS011;9492;51.888;5.186;2022-12-10T05:11:12;60.70;;;29.70;;
18726;SDS011;9492;51.888;5.186;2022-12-10T05:13:39;69.67;;;28.90;;
18726;SDS011;9492;51.888;5.186;2022-12-10T05:16:06;53.33;;;29.97;;
18726;SDS011;9492;51.888;5.186;2022-12-10T05:18:33;85.07;;;28.93;;
18726;SDS011;9492;51.888;5.186;2022-12-10T05:21:03;62.00;;;29.13;;
18726;SDS011;9492;51.888;5.186;2022-12-10T05:23:30;62.03;;;30.77;;
18726;SDS011;9492;51.888;5.186;2022-12-10T05:28:28;68.20;;;30.97;;
18726;SDS011;9492;51.888;5.186;2022-12-10T05:30:55;60.10;;;28.53;;
18726;SDS011;9492;51.888;5.186;2022-12-10T05:33:21;60.57;;;28.97;;
18726;SDS011;9492;51.888;5.186;2022-12-10T05:38:19;69.03;;;29.37;;
18726;SDS011;9492;51.888;5.186;2022-12-10T05:40:45;57.53;;;26.97;;
18726;SDS011;9492;51.888;5.186;2022-12-10T05:43:11;59.57;;;26.70;;
18726;SDS011;9492;51.888;5.186;2022-12-10T05:45:37;55.43;;;26.80;;
18726;SDS011;9492;51.888;5.186;2022-12-10T05:48:03;62.40;;;28.23;;
18726;SDS011;9492;51.888;5.186;2022-12-10T05:50:30;64.97;;;29.10;;
18726;SDS011;9492;51.888;5.186;2022-12-10T05:52:57;64.17;;;29.67;;
18726;SDS011;9492;51.888;5.186;2022-12-10T05:55:22;64.50;;;28.50;;
18726;SDS011;9492;51.888;5.186;2022-12-10T05:57:49;103.07;;;29.30;;
18726;SDS011;9492;51.888;5.186;2022-12-10T06:00:15;53.10;;;28.50;;
18726;SDS011;9492;51.888;5.186;2022-12-10T06:02:41;55.93;;;28.33;;
18726;SDS011;9492;51.888;5.186;2022-12-10T06:05:07;56.70;;;26.90;;
18726;SDS011;9492;51.888;5.186;2022-12-10T06:07:34;65.27;;;27.57;;
18726;SDS011;9492;51.888;5.186;2022-12-10T06:10:00;50.57;;;25.57;;
18726;SDS011;9492;51.888;5.186;2022-12-10T06:12:26;57.37;;;26.53;;
18726;SDS011;9492;51.888;5.186;2022-12-10T06:14:52;59.87;;;25.70;;
18726;SDS011;9492;51.888;5.186;2022-12-10T06:17:18;63.93;;;29.37;;
18726;SDS011;9492;51.888;5.186;2022-12-10T06:19:44;59.03;;;28.53;;
18726;SDS011;9492;51.888;5.186;2022-12-10T06:22:10;61.33;;;28.47;;
18726;SDS011;9492;51.888;5.186;2022-12-10T06:24:36;66.63;;;27.27;;
18726;SDS011;9492;51.888;5.186;2022-12-10T06:27:02;51.57;;;24.63;;
18726;SDS011;9492;51.888;5.186;2022-12-10T06:29:29;69.30;;;27.77;;
18726;SDS011;9492;51.888;5.186;2022-12-10T06:31:55;64.40;;;28.37;;
18726;SDS011;9492;51.888;5.186;2022-12-10T06:34:21;69.00;;;29.40;;
18726;SDS011;9492;51.888;5.186;2022-12-10T06:36:47;63.17;;;28.47;;
18726;SDS011;9492;51.888;5.186;2022-12-10T06:39:13;68.53;;;29.93;;
18726;SDS011;9492;51.888;5.186;2022-12-10T06:41:39;55.90;;;28.63;;
18726;SDS011;9492;51.888;5.186;2022-12-10T06:44:08;61.27;;;28.80;;
18726;SDS011;9492;51.888;5.186;2022-12-10T06:46:34;58.90;;;26.90;;
18726;SDS011;9492;51.888;5.186;2022-12-10T06:49:00;51.97;;;25.63;;
18726;SDS011;9492;51.888;5.186;2022-12-10T06:51:26;57.00;;;24.83;;
18726;SDS011;9492;51.888;5.186;2022-12-10T06:53:52;56.63;;;25.37;;
18726;SDS011;9492;51.888;5.186;2022-12-10T06:56:19;56.57;;;27.10;;
18726;SDS011;9492;51.888;5.186;2022-12-10T06:58:45;64.33;;;26.90;;
18726;SDS011;9492;51.888;5.186;2022-12-10T07:01:12;55.47;;;25.67;;
18726;SDS011;9492;51.888;5.186;2022-12-10T07:03:39;52.57;;;26.10;;
18726;SDS011;9492;51.888;5.186;2022-12-10T07:06:05;86.33;;;26.27;;
18726;SDS011;9492;51.888;5.186;2022-12-10T07:08:32;60.37;;;24.00;;
18726;SDS011;9492;51.888;5.186;2022-12-10T07:10:58;73.63;;;25.40;;
18726;SDS011;9492;51.888;5.186;2022-12-10T07:13:24;54.93;;;24.73;;
18726;SDS011;9492;51.888;5.186;2022-12-10T07:15:50;55.67;;;23.83;;
18726;SDS011;9492;51.888;5.186;2022-12-10T07:18:16;52.60;;;25.77;;
18726;SDS011;9492;51.888;5.186;2022-12-10T07:20:42;55.37;;;24.60;;
18726;SDS011;9492;51.888;5.186;2022-12-10T07:23:08;59.87;;;25.97;;
18726;SDS011;9492;51.888;5.186;2022-12-10T07:25:34;56.70;;;24.40;;
18726;SDS011;9492;51.888;5.186;2022-12-10T07:28:00;52.30;;;23.27;;
18726;SDS011;9492;51.888;5.186;2022-12-10T07:30:26;54.40;;;23.80;;
18726;SDS011;9492;51.888;5.186;2022-12-10T07:32:52;70.87;;;24.87;;
18726;SDS011;9492;51.888;5.186;2022-12-10T07:35:18;56.60;;;22.33;;
18726;SDS011;9492;51.888;5.186;2022-12-10T07:37:44;57.70;;;24.23;;
18726;SDS011;9492;51.888;5.186;2022-12-10T07:40:10;47.57;;;23.27;;
18726;SDS011;9492;51.888;5.186;2022-12-10T07:42:36;48.03;;;23.13;;
18726;SDS011;9492;51.888;5.186;2022-12-10T07:45:03;58.93;;;25.33;;
18726;SDS011;9492;51.888;5.186;2022-12-10T07:47:29;65.77;;;24.23;;
18726;SDS011;9492;51.888;5.186;2022-12-10T07:49:55;59.70;;;25.37;;
18726;SDS011;9492;51.888;5.186;2022-12-10T07:52:21;61.70;;;24.73;;
18726;SDS011;9492;51.888;5.186;2022-12-10T07:54:47;58.27;;;24.13;;
18726;SDS011;9492;51.888;5.186;2022-12-10T07:57:13;55.40;;;25.27;;
18726;SDS011;9492;51.888;5.186;2022-12-10T07:59:40;64.83;;;25.93;;
18726;SDS011;9492;51.888;5.186;2022-12-10T08:02:07;62.63;;;27.13;;
18726;SDS011;9492;51.888;5.186;2022-12-10T08:04:33;59.70;;;26.10;;
18726;SDS011;9492;51.888;5.186;2022-12-10T08:06:59;65.90;;;28.10;;
18726;SDS011;9492;51.888;5.186;2022-12-10T08:09:25;56.73;;;25.50;;
18726;SDS011;9492;51.888;5.186;2022-12-10T08:11:52;57.87;;;23.73;;
18726;SDS011;9492;51.888;5.186;2022-12-10T08:14:18;62.53;;;26.27;;
18726;SDS011;9492;51.888;5.186;2022-12-10T08:16:44;56.80;;;23.67;;
18726;SDS011;9492;51.888;5.186;2022-12-10T08:19:10;58.63;;;23.57;;
18726;SDS011;9492;51.888;5.186;2022-12-10T08:21:36;58.73;;;25.57;;
18726;SDS011;9492;51.888;5.186;2022-12-10T08:24:02;58.40;;;23.97;;
18726;SDS011;9492;51.888;5.186;2022-12-10T08:26:29;61.53;;;25.70;;
18726;SDS011;9492;51.888;5.186;2022-12-10T08:28:56;56.23;;;25.37;;
18726;SDS011;9492;51.888;5.186;2022-12-10T08:31:22;54.73;;;25.47;;
18726;SDS011;9492;51.888;5.186;2022-12-10T08:33:49;52.57;;;24.67;;
18726;SDS011;9492;51.888;5.186;2022-12-10T08:36:15;54.07;;;25.20;;
18726;SDS011;9492;51.888;5.186;2022-12-10T08:38:42;55.53;;;24.63;;
18726;SDS011;9492;51.888;5.186;2022-12-10T08:41:13;66.30;;;24.97;;
18726;SDS011;9492;51.888;5.186;2022-12-10T08:43:40;69.83;;;25.87;;
18726;SDS011;9492;51.888;5.186;2022-12-10T08:46:07;59.90;;;24.50;;
18726;SDS011;9492;51.888;5.186;2022-12-10T08:48:33;59.50;;;25.37;;
18726;SDS011;9492;51.888;5.186;2022-12-10T08:50:59;59.67;;;22.57;;
18726;SDS011;9492;51.888;5.186;2022-12-10T08:53:25;48.80;;;23.60;;
18726;SDS011;9492;51.888;5.186;2022-12-10T08:55:52;52.13;;;21.37;;
18726;SDS011;9492;51.888;5.186;2022-12-10T08:58:18;53.00;;;24.60;;
18726;SDS011;9492;51.888;5.186;2022-12-10T09:00:45;49.00;;;24.20;;
18726;SDS011;9492;51.888;5.186;2022-12-10T09:03:11;57.50;;;25.23;;
18726;SDS011;9492;51.888;5.186;2022-12-10T09:05:37;52.30;;;23.70;;
18726;SDS011;9492;51.888;5.186;2022-12-10T09:08:03;61.37;;;24.43;;
18726;SDS011;9492;51.888;5.186;2022-12-10T09:10:29;63.27;;;26.00;;
18726;SDS011;9492;51.888;5.186;2022-12-10T09:12:55;57.60;;;26.70;;
18726;SDS011;9492;51.888;5.186;2022-12-10T09:15:21;57.73;;;26.70;;
18726;SDS011;9492;51.888;5.186;2022-12-10T09:17:47;60.77;;;25.57;;
18726;SDS011;9492;51.888;5.186;2022-12-10T09:20:13;59.03;;;25.03;;
18726;SDS011;9492;51.888;5.186;2022-12-10T09:22:39;53.27;;;27.10;;
18726;SDS011;9492;51.888;5.186;2022-12-10T09:25:06;58.60;;;26.57;;
18726;SDS011;9492;51.888;5.186;2022-12-10T09:27:32;61.63;;;25.70;;
18726;SDS011;9492;51.888;5.186;2022-12-10T09:29:58;60.80;;;28.13;;
18726;SDS011;9492;51.888;5.186;2022-12-10T09:32:24;70.40;;;27.27;;
18726;SDS011;9492;51.888;5.186;2022-12-10T09:34:51;61.70;;;27.33;;
18726;SDS011;9492;51.888;5.186;2022-12-10T09:37:17;59.47;;;27.17;;
18726;SDS011;9492;51.888;5.186;2022-12-10T09:39:43;61.87;;;26.63;;
18726;SDS011;9492;51.888;5.186;2022-12-10T09:44:44;67.87;;;28.27;;
18726;SDS011;9492;51.888;5.186;2022-12-10T09:47:12;65.33;;;26.57;;
18726;SDS011;9492;51.888;5.186;2022-12-10T09:52:25;66.73;;;29.77;;
18726;SDS011;9492;51.888;5.186;2022-12-10T09:54:54;61.23;;;27.13;;
18726;SDS011;9492;51.888;5.186;2022-12-10T09:57:22;60.77;;;26.47;;
18726;SDS011;9492;51.888;5.186;2022-12-10T09:59:52;66.43;;;25.53;;
18726;SDS011;9492;51.888;5.186;2022-12-10T10:02:31;67.77;;;27.97;;
18726;SDS011;9492;51.888;5.186;2022-12-10T10:07:33;63.93;;;26.20;;
18726;SDS011;9492;51.888;5.186;2022-12-10T10:10:02;65.33;;;26.63;;
18726;SDS011;9492;51.888;5.186;2022-12-10T10:12:30;61.73;;;27.03;;
18726;SDS011;9492;51.888;5.186;2022-12-10T10:14:57;64.23;;;28.83;;
18726;SDS011;9492;51.888;5.186;2022-12-10T10:17:27;62.83;;;26.80;;
18726;SDS011;9492;51.888;5.186;2022-12-10T10:19:54;69.07;;;27.67;;
18726;SDS011;9492;51.888;5.186;2022-12-10T10:22:20;55.40;;;26.03;;
18726;SDS011;9492;51.888;5.186;2022-12-10T10:24:46;57.10;;;25.47;;
18726;SDS011;9492;51.888;5.186;2022-12-10T10:27:14;58.47;;;25.33;;
18726;SDS011;9492;51.888;5.186;2022-12-10T10:29:40;61.87;;;25.77;;
18726;SDS011;9492;51.888;5.186;2022-12-10T10:32:10;62.93;;;27.03;;
18726;SDS011;9492;51.888;5.186;2022-12-10T10:34:38;56.13;;;27.10;;
18726;SDS011;9492;51.888;5.186;2022-12-10T10:37:04;61.10;;;26.13;;
18726;SDS011;9492;51.888;5.186;2022-12-10T10:39:31;60.83;;;24.80;;
18726;SDS011;9492;51.888;5.186;2022-12-10T10:41:58;55.10;;;24.53;;
18726;SDS011;9492;51.888;5.186;2022-12-10T10:44:28;54.53;;;24.50;;
18726;SDS011;9492;51.888;5.186;2022-12-10T10:46:59;65.60;;;27.60;;
18726;SDS011;9492;51.888;5.186;2022-12-10T10:49:26;62.07;;;25.83;;
18726;SDS011;9492;51.888;5.186;2022-12-10T10:51:53;61.40;;;26.37;;
18726;SDS011;9492;51.888;5.186;2022-12-10T10:54:34;69.70;;;27.03;;
18726;SDS011;9492;51.888;5.186;2022-12-10T10:57:04;64.23;;;25.63;;
18726;SDS011;9492;51.888;5.186;2022-12-10T10:59:32;59.97;;;25.03;;
18726;SDS011;9492;51.888;5.186;2022-12-10T11:02:03;58.80;;;27.70;;
18726;SDS011;9492;51.888;5.186;2022-12-10T11:04:37;64.87;;;26.90;;
18726;SDS011;9492;51.888;5.186;2022-12-10T11:07:05;59.33;;;26.77;;
18726;SDS011;9492;51.888;5.186;2022-12-10T11:09:39;66.30;;;27.77;;
18726;SDS011;9492;51.888;5.186;2022-12-10T11:12:06;65.20;;;24.83;;
18726;SDS011;9492;51.888;5.186;2022-12-10T11:14:43;63.63;;;25.43;;
18726;SDS011;9492;51.888;5.186;2022-12-10T11:19:57;62.67;;;26.53;;
18726;SDS011;9492;51.888;5.186;2022-12-10T11:22:25;60.00;;;26.27;;
18726;SDS011;9492;51.888;5.186;2022-12-10T11:24:51;60.67;;;25.53;;
18726;SDS011;9492;51.888;5.186;2022-12-10T11:27:36;53.77;;;24.47;;
18726;SDS011;9492;51.888;5.186;2022-12-10T11:32:39;63.17;;;27.17;;
18726;SDS011;9492;51.888;5.186;2022-12-10T11:37:49;59.33;;;23.77;;
18726;SDS011;9492;51.888;5.186;2022-12-10T11:40:25;56.37;;;24.93;;
18726;SDS011;9492;51.888;5.186;2022-12-10T11:51:00;63.30;;;25.47;;
18726;SDS011;9492;51.888;5.186;2022-12-10T11:53:33;57.33;;;25.10;;
18726;SDS011;9492;51.888;5.186;2022-12-10T12:09:37;58.47;;;25.83;;
18726;SDS011;9492;51.888;5.186;2022-12-10T12:14:46;56.90;;;25.30;;
18726;SDS011;9492;51.888;5.186;2022-12-10T12:19:47;54.60;;;24.23;;
18726;SDS011;9492;51.888;5.186;2022-12-10T12:22:25;49.17;;;22.57;;
18726;SDS011;9492;51.888;5.186;2022-12-10T12:24:57;59.97;;;25.07;;
18726;SDS011;9492;51.888;5.186;2022-12-10T12:30:04;60.53;;;25.50;;
18726;SDS011;9492;51.888;5.186;2022-12-10T12:34:59;55.07;;;24.37;;
18726;SDS011;9492;51.888;5.186;2022-12-10T12:37:32;54.60;;;24.50;;
18726;SDS011;9492;51.888;5.186;2022-12-10T12:40:03;54.17;;;23.97;;
18726;SDS011;9492;51.888;5.186;2022-12-10T12:42:56;57.50;;;24.53;;
18726;SDS011;9492;51.888;5.186;2022-12-10T12:45:39;59.23;;;24.87;;
18726;SDS011;9492;51.888;5.186;2022-12-10T12:48:11;61.93;;;25.37;;
18726;SDS011;9492;51.888;5.186;2022-12-10T12:51:00;66.57;;;26.73;;
18726;SDS011;9492;51.888;5.186;2022-12-10T12:53:27;63.57;;;25.37;;
18726;SDS011;9492;51.888;5.186;2022-12-10T13:00:49;61.87;;;25.43;;
18726;SDS011;9492;51.888;5.186;2022-12-10T13:05:54;65.97;;;27.83;;
18726;SDS011;9492;51.888;5.186;2022-12-10T13:14:02;65.33;;;27.33;;
18726;SDS011;9492;51.888;5.186;2022-12-10T13:29:46;73.87;;;29.37;;
18726;SDS011;9492;51.888;5.186;2022-12-10T13:32:21;65.87;;;26.60;;
18726;SDS011;9492;51.888;5.186;2022-12-10T13:40:27;69.80;;;26.77;;
18726;SDS011;9492;51.888;5.186;2022-12-10T13:48:53;72.13;;;29.73;;
18726;SDS011;9492;51.888;5.186;2022-12-10T13:52:05;71.10;;;29.53;;
18726;SDS011;9492;51.888;5.186;2022-12-10T13:54:20;77.93;;;29.60;;
18726;SDS011;9492;51.888;5.186;2022-12-10T14:01:58;74.60;;;29.73;;
18726;SDS011;9492;51.888;5.186;2022-12-10T14:04:30;79.10;;;29.80;;
18726;SDS011;9492;51.888;5.186;2022-12-10T14:07:00;85.20;;;33.07;;
18726;SDS011;9492;51.888;5.186;2022-12-10T14:09:31;79.20;;;31.83;;
18726;SDS011;9492;51.888;5.186;2022-12-10T14:12:01;72.17;;;29.20;;
18726;SDS011;9492;51.888;5.186;2022-12-10T14:14:33;69.80;;;26.07;;
18726;SDS011;9492;51.888;5.186;2022-12-10T14:17:04;59.37;;;25.53;;
18726;SDS011;9492;51.888;5.186;2022-12-10T14:19:31;64.70;;;27.03;;
18726;SDS011;9492;51.888;5.186;2022-12-10T14:21:58;65.00;;;26.70;;
18726;SDS011;9492;51.888;5.186;2022-12-10T14:24:30;66.67;;;27.60;;
18726;SDS011;9492;51.888;5.186;2022-12-10T14:27:17;71.13;;;29.07;;
18726;SDS011;9492;51.888;5.186;2022-12-10T14:29:47;65.90;;;28.43;;
18726;SDS011;9492;51.888;5.186;2022-12-10T14:32:15;83.80;;;31.33;;
18726;SDS011;9492;51.888;5.186;2022-12-10T14:34:41;69.60;;;29.50;;
18726;SDS011;9492;51.888;5.186;2022-12-10T14:37:08;72.57;;;29.43;;
18726;SDS011;9492;51.888;5.186;2022-12-10T14:39:38;62.50;;;26.60;;
18726;SDS011;9492;51.888;5.186;2022-12-10T14:42:05;56.10;;;25.07;;
18726;SDS011;9492;51.888;5.186;2022-12-10T14:44:34;63.53;;;26.10;;
18726;SDS011;9492;51.888;5.186;2022-12-10T14:47:02;67.63;;;27.53;;
18726;SDS011;9492;51.888;5.186;2022-12-10T14:49:29;60.80;;;26.30;;
18726;SDS011;9492;51.888;5.186;2022-12-10T14:51:58;56.43;;;24.00;;
18726;SDS011;9492;51.888;5.186;2022-12-10T14:54:34;54.10;;;24.07;;
18726;SDS011;9492;51.888;5.186;2022-12-10T14:57:01;51.57;;;23.43;;
18726;SDS011;9492;51.888;5.186;2022-12-10T14:59:29;57.47;;;23.97;;
18726;SDS011;9492;51.888;5.186;2022-12-10T15:01:59;53.10;;;24.17;;
18726;SDS011;9492;51.888;5.186;2022-12-10T15:04:28;52.60;;;24.43;;
18726;SDS011;9492;51.888;5.186;2022-12-10T15:06:58;52.07;;;23.67;;
18726;SDS011;9492;51.888;5.186;2022-12-10T15:09:25;49.13;;;22.70;;
18726;SDS011;9492;51.888;5.186;2022-12-10T15:11:52;58.10;;;22.97;;
18726;SDS011;9492;51.888;5.186;2022-12-10T15:14:19;57.17;;;22.93;;
18726;SDS011;9492;51.888;5.186;2022-12-10T15:16:46;53.97;;;23.57;;
18726;SDS011;9492;51.888;5.186;2022-12-10T15:21:42;50.50;;;23.77;;
18726;SDS011;9492;51.888;5.186;2022-12-10T15:24:25;46.47;;;22.07;;
18726;SDS011;9492;51.888;5.186;2022-12-10T15:26:51;49.40;;;22.40;;
18726;SDS011;9492;51.888;5.186;2022-12-10T15:31:54;52.63;;;23.83;;
18726;SDS011;9492;51.888;5.186;2022-12-10T15:34:20;53.03;;;23.80;;
18726;SDS011;9492;51.888;5.186;2022-12-10T15:36:50;53.63;;;23.93;;
18726;SDS011;9492;51.888;5.186;2022-12-10T15:39:30;59.87;;;24.87;;
18726;SDS011;9492;51.888;5.186;2022-12-10T15:42:00;49.60;;;21.33;;
18726;SDS011;9492;51.888;5.186;2022-12-10T15:47:09;50.60;;;22.17;;
18726;SDS011;9492;51.888;5.186;2022-12-10T15:49:38;60.87;;;25.87;;
18726;SDS011;9492;51.888;5.186;2022-12-10T15:52:04;56.17;;;23.53;;
18726;SDS011;9492;51.888;5.186;2022-12-10T15:56:56;53.73;;;23.20;;
18726;SDS011;9492;51.888;5.186;2022-12-10T15:59:22;51.17;;;21.73;;
18726;SDS011;9492;51.888;5.186;2022-12-10T16:01:49;49.33;;;22.77;;
18726;SDS011;9492;51.888;5.186;2022-12-10T16:04:15;53.13;;;22.07;;
18726;SDS011;9492;51.888;5.186;2022-12-10T16:06:41;43.63;;;20.50;;
18726;SDS011;9492;51.888;5.186;2022-12-10T16:09:08;47.83;;;22.17;;
18726;SDS011;9492;51.888;5.186;2022-12-10T16:11:34;45.23;;;20.53;;
18726;SDS011;9492;51.888;5.186;2022-12-10T16:14:00;48.63;;;20.73;;
18726;SDS011;9492;51.888;5.186;2022-12-10T16:16:28;52.47;;;23.60;;
18726;SDS011;9492;51.888;5.186;2022-12-10T16:18:54;44.87;;;21.30;;
18726;SDS011;9492;51.888;5.186;2022-12-10T16:21:20;46.30;;;21.10;;
18726;SDS011;9492;51.888;5.186;2022-12-10T16:23:47;56.33;;;23.07;;
18726;SDS011;9492;51.888;5.186;2022-12-10T16:26:14;56.93;;;23.10;;
18726;SDS011;9492;51.888;5.186;2022-12-10T16:28:41;58.83;;;24.20;;
18726;SDS011;9492;51.888;5.186;2022-12-10T16:31:10;59.27;;;24.53;;
18726;SDS011;9492;51.888;5.186;2022-12-10T16:33:36;56.43;;;22.77;;
18726;SDS011;9492;51.888;5.186;2022-12-10T16:36:02;60.60;;;24.03;;
18726;SDS011;9492;51.888;5.186;2022-12-10T16:38:28;56.53;;;24.03;;
18726;SDS011;9492;51.888;5.186;2022-12-10T16:40:54;54.73;;;23.47;;